createdAt,value
2017-06-22T00:01:04.339Z,6.67
2017-06-22T00:03:37.279Z,5.90
2017-06-22T00:06:10.166Z,6.40
2017-06-22T00:08:43.221Z,7.03
2017-06-22T00:11:16.279Z,5.93
2017-06-22T00:13:49.296Z,6.33
2017-06-22T00:16:22.011Z,6.87
2017-06-22T00:18:54.756Z,5.90
2017-06-22T00:21:27.712Z,5.70
2017-06-22T00:24:00.646Z,6.40
2017-06-22T00:26:33.722Z,6.93
2017-06-22T00:29:06.243Z,6.50
2017-06-22T00:31:39.251Z,6.03
2017-06-22T00:34:11.999Z,7.43
2017-06-22T00:36:44.903Z,7.17
2017-06-22T00:39:17.903Z,6.07
2017-06-22T00:41:51.278Z,7.20
2017-06-22T00:44:23.779Z,6.43
2017-06-22T00:46:56.554Z,6.53
2017-06-22T00:49:29.679Z,6.40
2017-06-22T00:52:02.091Z,6.70
2017-06-22T00:54:35.008Z,5.90
2017-06-22T00:57:08.039Z,6.33
2017-06-22T00:59:40.896Z,6.60
2017-06-22T01:02:14.955Z,6.53
2017-06-22T01:04:47.950Z,7.50
2017-06-22T01:07:20.739Z,6.30
2017-06-22T01:09:53.799Z,6.53
2017-06-22T01:12:26.973Z,6.87
2017-06-22T01:14:59.299Z,6.93
2017-06-22T01:17:32.115Z,7.03
2017-06-22T01:20:05.143Z,6.63
2017-06-22T01:22:38.071Z,6.10
2017-06-22T01:25:11.056Z,6.67
2017-06-22T01:27:44.215Z,7.10
2017-06-22T01:30:17.058Z,6.40
2017-06-22T01:32:50.231Z,6.23
2017-06-22T01:35:23.103Z,9.40
2017-06-22T01:37:56.091Z,6.70
2017-06-22T01:40:28.639Z,6.70
2017-06-22T01:43:01.511Z,8.03
2017-06-22T01:45:34.246Z,7.00
2017-06-22T01:48:08.202Z,6.93
2017-06-22T01:50:41.131Z,6.90
2017-06-22T01:53:16.419Z,6.53
2017-06-22T01:55:49.011Z,6.77
2017-06-22T01:58:21.842Z,7.40
2017-06-22T02:00:54.595Z,7.20
2017-06-22T02:03:27.519Z,6.70
2017-06-22T02:06:00.619Z,7.03
2017-06-22T02:08:33.768Z,6.93
2017-06-22T02:11:06.459Z,7.53
2017-06-22T02:13:39.372Z,7.70
2017-06-22T02:16:27.311Z,7.77
2017-06-22T02:19:00.264Z,6.87
2017-06-22T02:21:33.076Z,7.30
2017-06-22T02:24:05.808Z,6.70
2017-06-22T02:26:38.819Z,6.77
2017-06-22T02:29:11.684Z,7.20
2017-06-22T02:31:44.642Z,7.37
2017-06-22T02:34:17.671Z,8.33
2017-06-22T02:36:50.347Z,7.00
2017-06-22T02:39:23.425Z,7.17
2017-06-22T02:41:56.317Z,7.67
2017-06-22T02:44:29.296Z,6.90
2017-06-22T02:47:02.183Z,7.50
2017-06-22T02:49:32.163Z,7.43
2017-06-22T02:52:04.903Z,7.30
2017-06-22T02:54:37.776Z,8.07
2017-06-22T02:57:10.695Z,7.67
2017-06-22T02:59:42.951Z,7.47
2017-06-22T03:02:15.852Z,7.00
2017-06-22T03:04:48.583Z,7.47
2017-06-22T03:07:21.192Z,7.63
2017-06-22T03:09:54.322Z,8.03
2017-06-22T03:12:26.963Z,7.70
2017-06-22T03:14:59.708Z,8.07
2017-06-22T03:17:32.529Z,7.50
2017-06-22T03:20:05.445Z,7.57
2017-06-22T03:22:38.328Z,7.83
2017-06-22T03:25:11.315Z,6.80
2017-06-22T03:27:44.104Z,8.00
2017-06-22T03:30:16.724Z,7.27
2017-06-22T03:32:49.579Z,7.80
2017-06-22T03:35:22.330Z,8.13
2017-06-22T03:37:55.243Z,7.97
2017-06-22T03:40:27.915Z,7.77
2017-06-22T03:43:00.699Z,7.97
2017-06-22T03:45:33.531Z,8.10
2017-06-22T03:48:06.611Z,8.53
2017-06-22T03:50:39.579Z,8.70
2017-06-22T03:53:12.567Z,9.30
2017-06-22T03:55:45.571Z,8.40
2017-06-22T03:58:18.411Z,8.57
2017-06-22T04:00:51.239Z,8.27
2017-06-22T04:03:23.910Z,8.30
2017-06-22T04:05:57.019Z,8.50
2017-06-22T04:08:29.720Z,8.10
2017-06-22T04:11:02.675Z,8.20
2017-06-22T04:13:35.795Z,7.83
2017-06-22T04:16:08.610Z,9.27
2017-06-22T04:18:41.123Z,7.90
2017-06-22T04:21:13.935Z,8.80
2017-06-22T04:23:46.806Z,8.70
2017-06-22T04:26:21.871Z,8.33
2017-06-22T04:28:54.687Z,8.40
2017-06-22T04:31:27.683Z,9.10
2017-06-22T04:34:00.498Z,7.50
2017-06-22T04:36:35.531Z,9.17
2017-06-22T04:39:08.611Z,8.67
2017-06-22T04:41:41.455Z,8.90
2017-06-22T04:44:14.159Z,9.30
2017-06-22T04:46:46.982Z,8.90
2017-06-22T04:49:19.856Z,8.47
2017-06-22T04:51:52.583Z,7.87
2017-06-22T04:54:25.311Z,8.83
2017-06-22T04:56:58.455Z,8.60
2017-06-22T04:59:31.350Z,8.60
2017-06-22T05:02:04.531Z,8.40
2017-06-22T05:04:37.228Z,7.63
2017-06-22T05:07:10.163Z,8.30
2017-06-22T05:09:43.051Z,8.20
2017-06-22T05:12:15.906Z,8.53
2017-06-22T05:14:48.588Z,8.57
2017-06-22T05:17:21.659Z,8.83
2017-06-22T05:19:54.315Z,8.43
2017-06-22T05:22:27.236Z,9.50
2017-06-22T05:24:59.990Z,8.60
2017-06-22T05:27:32.768Z,9.40
2017-06-22T05:30:05.604Z,8.97
2017-06-22T05:32:38.659Z,8.87
2017-06-22T05:35:11.618Z,8.30
2017-06-22T05:37:44.591Z,8.07
2017-06-22T05:40:17.591Z,7.93
2017-06-22T05:42:50.507Z,7.53
2017-06-22T05:45:23.318Z,8.00
2017-06-22T05:47:56.566Z,9.47
2017-06-22T05:50:29.459Z,8.97
2017-06-22T05:53:02.195Z,8.03
2017-06-22T05:55:35.300Z,8.53
2017-06-22T05:58:08.171Z,8.67
2017-06-22T06:00:41.154Z,8.53
2017-06-22T06:03:14.071Z,9.00
2017-06-22T06:05:46.675Z,7.80
2017-06-22T06:08:19.847Z,8.47
2017-06-22T06:10:52.701Z,8.77
2017-06-22T06:13:25.399Z,8.83
2017-06-22T06:15:59.097Z,10.03
2017-06-22T06:18:31.897Z,9.97
2017-06-22T06:21:04.715Z,10.00
2017-06-22T06:23:37.671Z,9.63
2017-06-22T06:26:10.451Z,10.77
2017-06-22T06:28:43.227Z,11.37
2017-06-22T06:31:16.167Z,9.87
2017-06-22T06:33:49.187Z,10.60
2017-06-22T06:36:22.062Z,9.40
2017-06-22T06:38:55.093Z,9.80
2017-06-22T06:41:27.875Z,9.93
2017-06-22T06:44:00.695Z,8.70
2017-06-22T06:46:33.516Z,9.97
2017-06-22T06:49:06.282Z,9.97
2017-06-22T06:51:39.071Z,12.63
2017-06-22T06:54:12.195Z,11.13
2017-06-22T06:56:44.903Z,10.43
2017-06-22T06:59:17.795Z,11.60
2017-06-22T07:01:50.715Z,11.33
2017-06-22T07:04:23.612Z,11.37
2017-06-22T07:06:56.469Z,10.20
2017-06-22T07:09:29.447Z,10.83
2017-06-22T07:12:03.231Z,11.53
2017-06-22T07:14:36.215Z,10.80
2017-06-22T07:17:09.114Z,10.77
2017-06-22T07:19:42.027Z,11.10
2017-06-22T07:22:15.043Z,11.60
2017-06-22T07:24:47.870Z,12.30
2017-06-22T07:27:20.668Z,10.33
2017-06-22T07:29:53.003Z,10.90
2017-06-22T07:32:27.089Z,11.37
2017-06-22T07:34:59.808Z,9.67
2017-06-22T07:37:32.659Z,12.47
2017-06-22T07:40:05.522Z,9.20
2017-06-22T07:42:38.527Z,10.70
2017-06-22T07:45:11.405Z,10.80
2017-06-22T07:47:44.118Z,11.70
2017-06-22T07:50:16.955Z,11.30
2017-06-22T07:52:49.971Z,11.17
2017-06-22T07:55:22.738Z,10.27
2017-06-22T07:57:55.827Z,12.27
2017-06-22T08:00:28.689Z,12.00
2017-06-22T08:03:01.564Z,10.30
2017-06-22T08:05:34.151Z,10.80
2017-06-22T08:08:06.932Z,10.77
2017-06-22T08:10:40.844Z,10.57
2017-06-22T08:13:13.555Z,10.70
2017-06-22T08:15:45.905Z,10.50
2017-06-22T08:18:18.595Z,10.63
2017-06-22T08:20:51.539Z,12.17
2017-06-22T08:23:24.420Z,10.50
2017-06-22T08:25:57.447Z,10.43
2017-06-22T08:28:30.252Z,9.33
2017-06-22T08:31:03.023Z,10.87
2017-06-22T08:33:35.923Z,10.50
2017-06-22T08:36:09.988Z,11.37
2017-06-22T08:38:42.847Z,9.27
2017-06-22T08:41:19.763Z,10.53
2017-06-22T08:43:52.503Z,11.50
2017-06-22T08:46:25.323Z,11.37
2017-06-22T08:48:57.539Z,10.73
2017-06-22T08:51:30.071Z,10.80
2017-06-22T08:54:02.903Z,10.87
2017-06-22T08:56:35.839Z,11.50
2017-06-22T08:59:08.545Z,11.40
2017-06-22T09:01:41.516Z,11.30
2017-06-22T09:04:14.235Z,11.57
2017-06-22T09:06:48.117Z,11.20
2017-06-22T09:09:31.856Z,10.30
2017-06-22T09:12:04.938Z,9.77
2017-06-22T09:14:37.823Z,11.10
2017-06-22T09:17:10.768Z,11.30
2017-06-22T09:19:43.727Z,10.73
2017-06-22T09:22:16.729Z,11.07
2017-06-22T09:24:49.831Z,10.73
2017-06-22T09:27:22.511Z,9.17
2017-06-22T09:29:55.502Z,9.47
2017-06-22T09:32:28.297Z,8.80
2017-06-22T09:35:01.195Z,7.50
2017-06-22T09:37:33.815Z,8.60
2017-06-22T09:40:06.640Z,9.10
2017-06-22T09:42:39.363Z,9.70
2017-06-22T09:45:12.176Z,8.10
2017-06-22T09:47:47.268Z,8.20
2017-06-22T09:50:20.150Z,8.47
2017-06-22T09:52:53.107Z,7.93
2017-06-22T09:55:25.935Z,8.13
2017-06-22T09:57:58.936Z,8.77
2017-06-22T10:00:31.547Z,8.37
2017-06-22T10:03:04.587Z,8.30
2017-06-22T10:05:37.503Z,8.20
2017-06-22T10:08:10.455Z,8.30
2017-06-22T10:10:43.383Z,8.57
2017-06-22T10:13:16.195Z,8.50
2017-06-22T10:15:49.187Z,7.83
2017-06-22T10:18:22.275Z,8.50
2017-06-22T10:20:55.266Z,8.70
2017-06-22T10:23:28.423Z,8.77
2017-06-22T10:26:01.260Z,9.00
2017-06-22T10:28:34.355Z,9.17
2017-06-22T10:31:07.120Z,9.13
2017-06-22T10:33:39.847Z,9.17
2017-06-22T10:36:12.734Z,9.20
2017-06-22T10:38:45.603Z,9.20
2017-06-22T10:41:18.485Z,10.23
2017-06-22T10:43:51.426Z,10.57
2017-06-22T10:46:24.202Z,9.90
2017-06-22T10:48:57.171Z,10.03
2017-06-22T10:51:30.099Z,9.67
2017-06-22T10:54:02.991Z,9.60
2017-06-22T10:56:35.964Z,10.30
2017-06-22T10:59:08.839Z,10.80
2017-06-22T11:01:41.776Z,10.27
2017-06-22T11:04:14.635Z,9.90
2017-06-22T11:06:47.716Z,9.20
2017-06-22T11:09:20.659Z,10.37
2017-06-22T11:11:53.324Z,10.30
2017-06-22T11:14:26.151Z,9.67
2017-06-22T11:16:59.116Z,11.53
2017-06-22T11:19:31.902Z,9.60
2017-06-22T11:22:04.788Z,11.07
2017-06-22T11:24:37.955Z,11.80
2017-06-22T11:27:10.795Z,10.80
2017-06-22T11:29:43.871Z,11.07
2017-06-22T11:32:16.939Z,10.53
2017-06-22T11:34:49.800Z,11.17
2017-06-22T11:37:22.468Z,10.47
2017-06-22T11:39:55.591Z,11.63
2017-06-22T11:42:28.234Z,11.77
2017-06-22T11:45:01.536Z,9.80
2017-06-22T11:47:34.427Z,11.00
2017-06-22T11:50:07.404Z,10.93
2017-06-22T11:52:40.187Z,11.37
2017-06-22T11:55:13.239Z,10.73
2017-06-22T11:57:46.191Z,10.27
2017-06-22T12:00:19.135Z,10.10
2017-06-22T12:02:51.701Z,8.83
2017-06-22T12:05:24.711Z,8.83
2017-06-22T12:07:57.574Z,7.93
2017-06-22T12:10:30.432Z,8.13
2017-06-22T12:13:03.218Z,8.00
2017-06-22T12:15:36.307Z,9.13
2017-06-22T12:18:09.223Z,7.57
2017-06-22T12:20:41.879Z,7.90
2017-06-22T12:23:14.835Z,6.87
2017-06-22T12:25:47.121Z,6.40
2017-06-22T12:28:20.067Z,7.93
2017-06-22T12:30:52.756Z,7.53
2017-06-22T12:33:25.672Z,7.53
2017-06-22T12:35:58.447Z,8.67
2017-06-22T12:38:31.320Z,10.17
2017-06-22T12:41:04.240Z,10.20
2017-06-22T12:43:37.040Z,11.93
2017-06-22T12:46:10.123Z,10.17
2017-06-22T12:48:43.003Z,9.67
2017-06-22T12:51:16.015Z,8.27
2017-06-22T12:53:48.798Z,7.83
2017-06-22T12:56:21.691Z,8.30
2017-06-22T12:58:54.271Z,9.93
2017-06-22T13:01:27.047Z,8.20
2017-06-22T13:04:00.011Z,9.00
2017-06-22T13:06:33.139Z,8.93
2017-06-22T13:09:05.999Z,9.13
2017-06-22T13:11:38.950Z,8.70
2017-06-22T13:14:12.976Z,8.80
2017-06-22T13:16:46.243Z,8.80
2017-06-22T13:19:18.835Z,8.20
2017-06-22T13:21:51.875Z,7.83
2017-06-22T13:24:24.803Z,8.50
2017-06-22T13:26:57.455Z,7.57
2017-06-22T13:29:30.493Z,9.00
2017-06-22T13:32:03.367Z,8.70
2017-06-22T13:34:36.230Z,8.33
2017-06-22T13:37:09.067Z,8.37
2017-06-22T13:39:42.099Z,10.37
2017-06-22T13:42:14.931Z,10.73
2017-06-22T13:44:47.651Z,8.80
2017-06-22T13:47:20.679Z,8.97
2017-06-22T13:49:53.475Z,9.10
2017-06-22T13:52:26.408Z,9.97
2017-06-22T13:54:59.231Z,9.80
2017-06-22T13:57:32.039Z,9.60
2017-06-22T14:00:04.624Z,9.33
2017-06-22T14:02:37.572Z,8.50
2017-06-22T14:05:10.458Z,10.20
2017-06-22T14:07:43.174Z,9.97
2017-06-22T14:10:15.499Z,9.50
2017-06-22T14:12:48.483Z,7.33
2017-06-22T14:15:21.515Z,8.63
2017-06-22T14:17:56.906Z,8.17
2017-06-22T14:20:29.411Z,6.70
2017-06-22T14:23:02.147Z,6.73
2017-06-22T14:25:34.729Z,7.00
2017-06-22T14:28:07.471Z,6.70
2017-06-22T14:30:40.203Z,6.80
2017-06-22T14:33:13.026Z,6.00
2017-06-22T14:35:45.959Z,6.23
2017-06-22T14:38:19.271Z,6.70
2017-06-22T14:40:52.043Z,6.70
2017-06-22T14:43:24.955Z,6.13
2017-06-22T14:45:58.031Z,6.43
2017-06-22T14:48:30.858Z,6.17
2017-06-22T14:51:03.847Z,6.33
2017-06-22T14:53:36.991Z,6.77
2017-06-22T14:56:09.626Z,7.43
2017-06-22T14:58:42.643Z,7.67
2017-06-22T15:01:15.631Z,6.87
2017-06-22T15:03:48.579Z,7.60
2017-06-22T15:06:21.466Z,7.97
2017-06-22T15:08:54.644Z,7.90
2017-06-22T15:11:27.307Z,8.90
2017-06-22T15:14:00.360Z,8.60
2017-06-22T15:16:33.398Z,8.40
2017-06-22T15:19:06.454Z,8.57
2017-06-22T15:21:39.351Z,8.00
2017-06-22T15:24:12.611Z,7.10
2017-06-22T15:26:45.439Z,7.60
2017-06-22T15:29:18.511Z,6.80
2017-06-22T15:31:51.324Z,7.57
2017-06-22T15:34:24.451Z,7.53
2017-06-22T15:36:57.391Z,8.10
2017-06-22T15:39:30.095Z,8.03
2017-06-22T15:42:00.077Z,8.70
2017-06-22T15:44:33.028Z,8.77
2017-06-22T15:47:06.191Z,8.50
2017-06-22T15:49:38.827Z,8.63
2017-06-22T15:52:11.356Z,8.73
2017-06-22T15:54:44.307Z,8.60
2017-06-22T15:57:16.931Z,8.53
2017-06-22T15:59:49.783Z,8.17
2017-06-22T16:02:22.364Z,9.77
2017-06-22T16:04:55.205Z,9.20
2017-06-22T16:07:27.931Z,9.63
2017-06-22T16:10:00.875Z,9.17
2017-06-22T16:12:33.671Z,9.20
2017-06-22T16:15:06.443Z,9.13
2017-06-22T16:17:39.455Z,9.10
2017-06-22T16:20:12.379Z,7.93
2017-06-22T16:22:45.287Z,8.90
2017-06-22T16:25:18.048Z,8.27
2017-06-22T16:27:50.703Z,8.67
2017-06-22T16:30:23.740Z,9.10
2017-06-22T16:32:56.654Z,7.63
2017-06-22T16:35:29.422Z,8.80
2017-06-22T16:38:02.063Z,8.40
2017-06-22T16:40:37.652Z,7.57
2017-06-22T16:43:09.871Z,7.70
2017-06-22T16:45:42.699Z,7.47
2017-06-22T16:48:15.412Z,6.50
2017-06-22T16:50:48.575Z,7.80
2017-06-22T16:53:21.294Z,7.40
2017-06-22T16:55:54.103Z,7.17
2017-06-22T16:58:26.944Z,7.60
2017-06-22T17:00:59.547Z,6.90
2017-06-22T17:03:32.536Z,6.70
2017-06-22T17:06:05.424Z,7.87
2017-06-22T17:08:38.251Z,6.70
2017-06-22T17:11:11.112Z,7.63
2017-06-22T17:13:43.916Z,7.43
2017-06-22T17:16:16.995Z,7.00
2017-06-22T17:18:49.682Z,6.70
2017-06-22T17:21:22.509Z,6.80
2017-06-22T17:23:55.671Z,7.00
2017-06-22T17:26:28.705Z,6.57
2017-06-22T17:29:01.656Z,7.93
2017-06-22T17:31:34.499Z,7.30
2017-06-22T17:34:07.144Z,7.97
2017-06-22T17:36:39.940Z,7.80
2017-06-22T17:39:12.792Z,7.90
2017-06-22T17:41:45.756Z,7.00
2017-06-22T17:44:18.658Z,7.30
2017-06-22T17:46:51.694Z,7.90
2017-06-22T17:49:24.551Z,7.67
2017-06-22T17:51:57.415Z,6.93
2017-06-22T17:54:30.195Z,8.00
2017-06-22T17:57:03.171Z,7.10
2017-06-22T17:59:35.858Z,7.03
2017-06-22T18:02:08.989Z,7.27
2017-06-22T18:04:41.983Z,7.43
2017-06-22T18:07:14.793Z,7.30
2017-06-22T18:09:47.564Z,8.00
2017-06-22T18:12:20.394Z,8.60
2017-06-22T18:14:53.289Z,7.73
2017-06-22T18:17:23.239Z,9.10
2017-06-22T18:19:56.195Z,8.70
2017-06-22T18:22:29.060Z,7.87
2017-06-22T18:25:02.041Z,7.77
2017-06-22T18:27:34.912Z,8.13
2017-06-22T18:30:08.022Z,7.50
2017-06-22T18:32:41.480Z,8.13
2017-06-22T18:35:14.348Z,7.63
2017-06-22T18:37:47.330Z,7.30
2017-06-22T18:40:20.354Z,10.00
2017-06-22T18:42:53.579Z,8.87
2017-06-22T18:45:27.272Z,9.50
2017-06-22T18:48:00.294Z,8.60
2017-06-22T18:50:33.297Z,8.43
2017-06-22T18:53:07.294Z,7.73
2017-06-22T18:55:40.876Z,9.60
2017-06-22T18:58:14.383Z,9.13
2017-06-22T19:00:48.259Z,8.40
2017-06-22T19:03:22.361Z,9.53
2017-06-22T19:05:56.031Z,10.00
2017-06-22T19:08:29.936Z,8.87
2017-06-22T19:11:03.846Z,8.87
2017-06-22T19:13:37.857Z,9.07
2017-06-22T19:16:11.620Z,9.23
2017-06-22T19:18:46.245Z,10.23
2017-06-22T19:21:19.980Z,9.27
2017-06-22T19:23:54.109Z,9.27
2017-06-22T19:26:27.975Z,8.30
2017-06-22T19:29:01.858Z,9.67
2017-06-22T19:31:35.668Z,9.20
2017-06-22T19:34:09.557Z,9.00
2017-06-22T19:36:43.203Z,9.80
2017-06-22T19:39:17.364Z,10.43
2017-06-22T19:41:51.349Z,10.57
2017-06-22T19:44:25.245Z,8.93
2017-06-22T19:46:59.176Z,10.80
2017-06-22T19:49:33.125Z,9.73
2017-06-22T19:52:06.912Z,10.73
2017-06-22T19:54:40.936Z,10.90
2017-06-22T19:57:14.736Z,10.60
2017-06-22T19:59:48.659Z,11.70
2017-06-22T20:02:22.453Z,11.77
2017-06-22T20:04:56.641Z,11.83
2017-06-22T20:07:30.680Z,11.00
2017-06-22T20:10:04.788Z,12.17
2017-06-22T20:12:38.777Z,11.37
2017-06-22T20:15:12.688Z,11.40
2017-06-22T20:17:46.695Z,14.07
2017-06-22T20:20:20.678Z,11.63
2017-06-22T20:22:54.242Z,11.90
2017-06-22T20:25:28.369Z,9.90
2017-06-22T20:28:02.539Z,11.00
2017-06-22T20:30:36.381Z,11.03
2017-06-22T20:33:10.444Z,10.20
2017-06-22T20:35:44.449Z,10.77
2017-06-22T20:38:18.330Z,10.93
2017-06-22T20:40:52.565Z,11.00
2017-06-22T20:43:26.244Z,11.10
2017-06-22T20:46:00.213Z,12.83
2017-06-22T20:48:33.935Z,12.10
2017-06-22T20:51:07.317Z,10.77
2017-06-22T20:53:40.861Z,12.20
2017-06-22T20:56:13.437Z,12.33
2017-06-22T20:58:46.367Z,11.43
2017-06-22T21:01:19.005Z,11.03
2017-06-22T21:03:51.851Z,11.50
2017-06-22T21:06:25.122Z,11.50
2017-06-22T21:08:57.859Z,11.60
2017-06-22T21:11:30.875Z,11.53
2017-06-22T21:14:03.479Z,11.40
2017-06-22T21:16:36.347Z,11.23
2017-06-22T21:19:09.215Z,11.40
2017-06-22T21:21:42.015Z,11.90
2017-06-22T21:24:18.534Z,12.63
2017-06-22T21:26:48.115Z,10.13
2017-06-22T21:29:20.707Z,11.20
2017-06-22T21:31:53.535Z,11.67
2017-06-22T21:34:26.519Z,9.60
2017-06-22T21:36:59.280Z,10.20
2017-06-22T21:39:32.270Z,11.80
2017-06-22T21:42:05.267Z,11.13
2017-06-22T21:44:37.930Z,9.93
2017-06-22T21:47:11.161Z,10.30
2017-06-22T21:49:43.863Z,10.17
2017-06-22T21:52:16.495Z,11.17
2017-06-22T21:54:49.629Z,10.27
2017-06-22T21:57:22.535Z,10.10
2017-06-22T21:59:54.717Z,10.00
2017-06-22T22:02:27.611Z,9.37
2017-06-22T22:05:00.351Z,10.00
2017-06-22T22:07:33.275Z,10.20
2017-06-22T22:10:06.283Z,9.93
2017-06-22T22:12:39.156Z,11.27
2017-06-22T22:15:09.204Z,9.67
2017-06-22T22:17:41.763Z,11.63
2017-06-22T22:20:14.531Z,9.97
2017-06-22T22:22:47.439Z,10.97
2017-06-22T22:25:20.439Z,10.67
2017-06-22T22:27:55.823Z,10.10
2017-06-22T22:30:28.243Z,10.00
2017-06-22T22:33:01.239Z,11.63
2017-06-22T22:35:34.131Z,12.33
2017-06-22T22:38:07.302Z,10.87
2017-06-22T22:40:40.287Z,10.87
2017-06-22T22:43:13.124Z,11.20
2017-06-22T22:45:45.839Z,10.20
2017-06-22T22:48:19.007Z,12.40
2017-06-22T22:50:51.955Z,12.63
2017-06-22T22:53:24.931Z,12.93
2017-06-22T22:55:57.811Z,12.87
2017-06-22T22:58:30.879Z,13.20
2017-06-22T23:01:03.638Z,11.53
2017-06-22T23:03:36.467Z,11.20
2017-06-22T23:06:09.428Z,12.30
2017-06-22T23:08:42.451Z,12.83
2017-06-22T23:11:15.314Z,10.03
2017-06-22T23:13:48.333Z,10.40
2017-06-22T23:16:21.231Z,11.13
2017-06-22T23:18:54.283Z,10.27
2017-06-22T23:21:27.090Z,11.00
2017-06-22T23:23:59.859Z,10.57
2017-06-22T23:26:32.734Z,10.43
2017-06-22T23:29:05.559Z,9.23
2017-06-22T23:31:38.503Z,9.50
2017-06-22T23:34:11.335Z,9.60
2017-06-22T23:36:44.311Z,9.00
2017-06-22T23:39:17.062Z,8.07
2017-06-22T23:41:49.952Z,8.87
2017-06-22T23:44:22.898Z,8.03
2017-06-22T23:46:55.804Z,8.90
2017-06-22T23:49:28.792Z,8.57
2017-06-22T23:52:01.643Z,7.83
2017-06-22T23:54:34.443Z,7.93
2017-06-22T23:57:07.296Z,8.73
2017-06-22T23:59:40.343Z,8.33
